Sentinel, OK (73664)

10:42 PM CDT on July 09, 2014 (GMT -0500)
Petzold Consulting (KOKLONEW2) Elev 1588 ft | 34.99 °N, 99.25 °W | Change Station

Current weather conditions updated 10 seconds ago

Clear
Clear
82.2 °F
Feels Like 85 °F
N
6.7
Wind Variable Wind from ESE
Gusts 9.8 mph

Tomorrow is forecast to be Warmer than today.

Today
High -- | Low -- °F
--% Chance of Precip.
Yesterday
High -- | Low -- °F
Precip. -- in
6:30 AM 8:53 PM
Waxing Gibbous, 92% visible
Pressure 29.94 in
Visibility 10.0 miles
Clouds Clear
Heat Index 85 °F
Dew Point 67 °F
Humidity 59%
Rainfall 0.00 in
Snow Depth Not available.
UV 0 out of 12
Pollen 4.20 out of 12
Air Quality Not available.
Flu Activity Local Activity
METAR KCSM 100253Z 12011KT 10SM CLR 27/18 A3001 RMK AO2 SLP139 T02720183 53007

More Conditions Fewer Conditions

Pressure 29.94 in
Visibility 10.0 miles
Clouds Clear
Heat Index 85 °F
Dew Point 67 °F
Humidity 59%
Rainfall 0.00 in
Snow Depth Not available.
UV 0 out of 12
Pollen 4.20 out of 12
Air Quality Not available.
Flu Activity Local Activity
METAR KCSM 100253Z 12011KT 10SM CLR 27/18 A3001 RMK AO2 SLP139 T02720183 53007

More Conditions Fewer Conditions

10-Day Weather Forecast

Almanac

Astronomy

Jul. 09, 2014 Rise Set
Actual Time 6:30 AM CDT 8:53 PM CDT
Civil Twilight 6:00 AM CDT 9:22 PM CDT
Nautical Twilight 5:24 AM CDT 9:59 PM CDT
Astronomical Twilight 4:44 AM CDT 10:38 PM CDT
Moon 6:08 PM CDT (7/9) 3:46 AM CDT (7/9)
Length of Visible Light 15h 22m
Length of Day
14h 23m
Tomorrow will be 0m 53s shorter.
Waxing Gibbous, 92% of the Moon is Illuminated
Today
Waxing Gibbous
Jul 12
Full
Jul 18
Last Quarter
Jul 26
New
Aug 3
First Quarter

Today's Extremes

State Highs State Lows

Community

WunderPhotos

Upload Photos

1,732,057 photos uploaded!

Nearby

Snow Depth

Station Depth Elevation
No new snow has been reported.

Earthquake Activity

City Distance Mag. Time & Date
Blackwell, Oklahoma 153 miles 3.1 11:55 PM CDT
2014-07-03
Cherokee, Oklahoma 127 miles 3.0 3:24 PM CDT
2014-07-03
Minimum magnitude displayed is 2.5.

Coastal Water Temperatures

Place Temperature
No Stations Reporting

Nearby Weather Stations

Station Location Temp. Heat Index Dew Point Humidity Wind Precip. Elev Updated Type
Petzold Consulting, Lone Wolf, OK 82.2 °F 85 °F 67 °F 59% ESE  at  6.7 mph 0.00 in / hr 1588 ft 10:41 PM CDT Rapid Fire
HADS MUNICIPAL AIRPORT NEAR ELK CITY OK, Elk City, OK 86 °F 83 °F - - North  at  - 0.00 in / hr 1981 ft 9:00 PM CDT MADIS

Show More Stations Show Fewer Stations